sensor_id;sensor_type;location;lat;lon;timestamp;pressure;altitude;pressure_sealevel;temperature;humidity
70815;BME280;58428;49.478;10.986;2023-02-14T00:00:21;100443.66;;;4.24;100.00
70815;BME280;58428;49.478;10.986;2023-02-14T00:02:49;100440.97;;;4.24;100.00
70815;BME280;58428;49.478;10.986;2023-02-14T00:05:15;100447.97;;;4.25;100.00
70815;BME280;58428;49.478;10.986;2023-02-14T00:07:42;100436.31;;;4.19;100.00
70815;BME280;58428;49.478;10.986;2023-02-14T00:10:10;100442.25;;;4.21;100.00
70815;BME280;58428;49.478;10.986;2023-02-14T00:12:36;100447.16;;;4.24;100.00
70815;BME280;58428;49.478;10.986;2023-02-14T00:15:01;100457.19;;;4.17;100.00
70815;BME280;58428;49.478;10.986;2023-02-14T00:17:51;100449.38;;;4.16;100.00
70815;BME280;58428;49.478;10.986;2023-02-14T00:20:18;100447.03;;;4.19;100.00
70815;BME280;58428;49.478;10.986;2023-02-14T00:22:45;100437.84;;;4.15;100.00
70815;BME280;58428;49.478;10.986;2023-02-14T00:25:13;100432.84;;;4.07;100.00
70815;BME280;58428;49.478;10.986;2023-02-14T00:27:40;100438.66;;;4.16;100.00
70815;BME280;58428;49.478;10.986;2023-02-14T00:30:09;100438.78;;;4.21;100.00
70815;BME280;58428;49.478;10.986;2023-02-14T00:32:39;100446.81;;;4.09;100.00
70815;BME280;58428;49.478;10.986;2023-02-14T00:35:06;100447.06;;;3.97;100.00
70815;BME280;58428;49.478;10.986;2023-02-14T00:37:35;100442.66;;;3.91;100.00
70815;BME280;58428;49.478;10.986;2023-02-14T00:40:00;100442.06;;;4.00;100.00
70815;BME280;58428;49.478;10.986;2023-02-14T00:42:26;100440.91;;;4.07;100.00
70815;BME280;58428;49.478;10.986;2023-02-14T00:44:51;100446.69;;;4.16;100.00
70815;BME280;58428;49.478;10.986;2023-02-14T00:47:17;100434.81;;;4.12;100.00
70815;BME280;58428;49.478;10.986;2023-02-14T00:49:42;100445.22;;;3.97;100.00
70815;BME280;58428;49.478;10.986;2023-02-14T00:52:07;100439.97;;;4.02;100.00
70815;BME280;58428;49.478;10.986;2023-02-14T00:54:33;100442.56;;;3.97;100.00
70815;BME280;58428;49.478;10.986;2023-02-14T00:56:58;100445.00;;;3.87;100.00
70815;BME280;58428;49.478;10.986;2023-02-14T00:59:25;100448.84;;;3.91;100.00
70815;BME280;58428;49.478;10.986;2023-02-14T01:01:51;100447.19;;;3.79;100.00
70815;BME280;58428;49.478;10.986;2023-02-14T01:04:16;100447.34;;;3.84;100.00
70815;BME280;58428;49.478;10.986;2023-02-14T01:06:42;100442.56;;;3.97;100.00
70815;BME280;58428;49.478;10.986;2023-02-14T01:09:08;100450.09;;;4.00;100.00
70815;BME280;58428;49.478;10.986;2023-02-14T01:11:33;100449.28;;;4.00;100.00
70815;BME280;58428;49.478;10.986;2023-02-14T01:13:59;100447.31;;;3.95;100.00
70815;BME280;58428;49.478;10.986;2023-02-14T01:16:26;100447.41;;;4.00;100.00
70815;BME280;58428;49.478;10.986;2023-02-14T01:18:52;100453.94;;;4.04;100.00
70815;BME280;58428;49.478;10.986;2023-02-14T01:21:26;100445.31;;;4.02;100.00
70815;BME280;58428;49.478;10.986;2023-02-14T01:23:57;100444.16;;;4.09;100.00
70815;BME280;58428;49.478;10.986;2023-02-14T01:26:24;100443.91;;;4.11;100.00
70815;BME280;58428;49.478;10.986;2023-02-14T01:28:50;100448.22;;;4.12;100.00
70815;BME280;58428;49.478;10.986;2023-02-14T01:31:21;100449.16;;;4.06;100.00
70815;BME280;58428;49.478;10.986;2023-02-14T01:33:49;100447.41;;;4.11;100.00
70815;BME280;58428;49.478;10.986;2023-02-14T01:38:56;100456.28;;;3.89;100.00
70815;BME280;58428;49.478;10.986;2023-02-14T01:41:28;100446.25;;;3.96;100.00
70815;BME280;58428;49.478;10.986;2023-02-14T01:46:38;100448.72;;;3.98;100.00
70815;BME280;58428;49.478;10.986;2023-02-14T01:51:33;100450.56;;;4.08;100.00
70815;BME280;58428;49.478;10.986;2023-02-14T01:54:00;100449.66;;;4.03;100.00
70815;BME280;58428;49.478;10.986;2023-02-14T01:56:33;100445.09;;;3.92;100.00
70815;BME280;58428;49.478;10.986;2023-02-14T01:59:01;100440.47;;;3.88;100.00
70815;BME280;58428;49.478;10.986;2023-02-14T02:01:30;100438.81;;;3.75;100.00
70815;BME280;58428;49.478;10.986;2023-02-14T02:04:00;100441.50;;;3.75;100.00
70815;BME280;58428;49.478;10.986;2023-02-14T02:06:30;100442.91;;;3.78;100.00
70815;BME280;58428;49.478;10.986;2023-02-14T02:09:15;100447.91;;;3.74;100.00
70815;BME280;58428;49.478;10.986;2023-02-14T02:11:42;100436.63;;;3.84;100.00
70815;BME280;58428;49.478;10.986;2023-02-14T02:14:16;100437.41;;;3.96;100.00
70815;BME280;58428;49.478;10.986;2023-02-14T02:16:49;100438.56;;;4.00;100.00
70815;BME280;58428;49.478;10.986;2023-02-14T02:19:59;100432.28;;;3.94;100.00
70815;BME280;58428;49.478;10.986;2023-02-14T02:25:26;100439.59;;;4.10;100.00
70815;BME280;58428;49.478;10.986;2023-02-14T02:37:08;100430.34;;;3.67;100.00
70815;BME280;58428;49.478;10.986;2023-02-14T02:48:04;100433.13;;;3.83;100.00
70815;BME280;58428;49.478;10.986;2023-02-14T02:50:42;100427.31;;;3.86;100.00
70815;BME280;58428;49.478;10.986;2023-02-14T02:56:09;100435.69;;;3.78;100.00
70815;BME280;58428;49.478;10.986;2023-02-14T02:59:26;100429.88;;;3.81;100.00
70815;BME280;58428;49.478;10.986;2023-02-14T03:02:04;100438.13;;;3.80;100.00
70815;BME280;58428;49.478;10.986;2023-02-14T03:04:34;100441.50;;;3.75;100.00
70815;BME280;58428;49.478;10.986;2023-02-14T03:15:43;100431.25;;;3.38;100.00
70815;BME280;58428;49.478;10.986;2023-02-14T03:21:27;100432.06;;;3.62;100.00
70815;BME280;58428;49.478;10.986;2023-02-14T03:24:04;100432.91;;;3.62;100.00
70815;BME280;58428;49.478;10.986;2023-02-14T03:26:36;100436.84;;;3.71;100.00
70815;BME280;58428;49.478;10.986;2023-02-14T03:31:43;100440.81;;;3.57;100.00
70815;BME280;58428;49.478;10.986;2023-02-14T03:34:18;100451.28;;;3.47;100.00
70815;BME280;58428;49.478;10.986;2023-02-14T03:36:53;100449.06;;;3.33;100.00
70815;BME280;58428;49.478;10.986;2023-02-14T03:42:19;100444.97;;;3.30;100.00
70815;BME280;58428;49.478;10.986;2023-02-14T03:44:51;100437.28;;;3.23;100.00
70815;BME280;58428;49.478;10.986;2023-02-14T03:47:20;100436.81;;;3.14;100.00
70815;BME280;58428;49.478;10.986;2023-02-14T03:49:51;100437.88;;;3.25;100.00
70815;BME280;58428;49.478;10.986;2023-02-14T03:52:20;100441.22;;;3.09;100.00
70815;BME280;58428;49.478;10.986;2023-02-14T03:54:49;100437.03;;;3.13;100.00
70815;BME280;58428;49.478;10.986;2023-02-14T03:57:28;100433.59;;;3.24;100.00
70815;BME280;58428;49.478;10.986;2023-02-14T03:59:55;100435.41;;;3.23;100.00
70815;BME280;58428;49.478;10.986;2023-02-14T04:02:27;100436.84;;;3.26;100.00
70815;BME280;58428;49.478;10.986;2023-02-14T04:04:54;100436.47;;;3.22;100.00
70815;BME280;58428;49.478;10.986;2023-02-14T04:07:23;100445.53;;;3.10;100.00
70815;BME280;58428;49.478;10.986;2023-02-14T04:09:49;100438.44;;;3.04;100.00
70815;BME280;58428;49.478;10.986;2023-02-14T04:12:16;100440.03;;;3.05;100.00
70815;BME280;58428;49.478;10.986;2023-02-14T04:14:41;100441.47;;;3.19;100.00
70815;BME280;58428;49.478;10.986;2023-02-14T04:17:07;100446.44;;;3.15;100.00
70815;BME280;58428;49.478;10.986;2023-02-14T04:19:52;100438.34;;;3.22;100.00
70815;BME280;58428;49.478;10.986;2023-02-14T04:22:17;100442.56;;;3.29;100.00
70815;BME280;58428;49.478;10.986;2023-02-14T04:24:43;100444.16;;;3.30;100.00
70815;BME280;58428;49.478;10.986;2023-02-14T04:27:09;100439.63;;;3.30;100.00
70815;BME280;58428;49.478;10.986;2023-02-14T04:29:40;100429.47;;;3.21;100.00
70815;BME280;58428;49.478;10.986;2023-02-14T04:32:08;100428.50;;;2.93;100.00
70815;BME280;58428;49.478;10.986;2023-02-14T04:34:35;100433.16;;;2.97;100.00
70815;BME280;58428;49.478;10.986;2023-02-14T04:37:01;100431.00;;;3.06;100.00
70815;BME280;58428;49.478;10.986;2023-02-14T04:39:28;100429.97;;;3.18;100.00
70815;BME280;58428;49.478;10.986;2023-02-14T04:41:53;100425.78;;;3.22;100.00
70815;BME280;58428;49.478;10.986;2023-02-14T04:44:23;100421.97;;;3.29;100.00
70815;BME280;58428;49.478;10.986;2023-02-14T04:46:49;100416.59;;;3.29;100.00
70815;BME280;58428;49.478;10.986;2023-02-14T04:49:15;100414.16;;;3.28;100.00
70815;BME280;58428;49.478;10.986;2023-02-14T04:51:43;100410.44;;;3.29;100.00
70815;BME280;58428;49.478;10.986;2023-02-14T04:54:08;100410.09;;;3.37;100.00
70815;BME280;58428;49.478;10.986;2023-02-14T04:56:34;100411.84;;;3.43;100.00
70815;BME280;58428;49.478;10.986;2023-02-14T04:58:59;100411.13;;;3.36;100.00
70815;BME280;58428;49.478;10.986;2023-02-14T05:01:25;100404.97;;;3.35;100.00
70815;BME280;58428;49.478;10.986;2023-02-14T05:03:50;100408.81;;;3.28;100.00
70815;BME280;58428;49.478;10.986;2023-02-14T05:06:16;100409.59;;;3.17;100.00
70815;BME280;58428;49.478;10.986;2023-02-14T05:08:41;100411.56;;;3.10;100.00
70815;BME280;58428;49.478;10.986;2023-02-14T05:11:07;100407.50;;;3.19;100.00
70815;BME280;58428;49.478;10.986;2023-02-14T05:13:32;100400.19;;;3.26;100.00
70815;BME280;58428;49.478;10.986;2023-02-14T05:15:57;100403.56;;;3.22;100.00
70815;BME280;58428;49.478;10.986;2023-02-14T05:18:23;100400.75;;;3.17;100.00
70815;BME280;58428;49.478;10.986;2023-02-14T05:20:50;100403.56;;;3.10;100.00
70815;BME280;58428;49.478;10.986;2023-02-14T05:23:16;100405.06;;;3.06;100.00
70815;BME280;58428;49.478;10.986;2023-02-14T05:25:42;100402.50;;;3.11;100.00
70815;BME280;58428;49.478;10.986;2023-02-14T05:28:10;100400.66;;;3.12;100.00
70815;BME280;58428;49.478;10.986;2023-02-14T05:30:39;100407.03;;;3.11;100.00
70815;BME280;58428;49.478;10.986;2023-02-14T05:33:06;100408.53;;;3.07;100.00
70815;BME280;58428;49.478;10.986;2023-02-14T05:35:32;100397.13;;;3.00;100.00
70815;BME280;58428;49.478;10.986;2023-02-14T05:37:57;100407.22;;;2.98;100.00
70815;BME280;58428;49.478;10.986;2023-02-14T05:40:23;100402.63;;;3.05;100.00
70815;BME280;58428;49.478;10.986;2023-02-14T05:42:51;100389.22;;;2.93;100.00
70815;BME280;58428;49.478;10.986;2023-02-14T05:45:16;100394.47;;;2.89;100.00
70815;BME280;58428;49.478;10.986;2023-02-14T05:47:41;100400.13;;;2.92;100.00
70815;BME280;58428;49.478;10.986;2023-02-14T05:50:08;100385.97;;;2.92;100.00
70815;BME280;58428;49.478;10.986;2023-02-14T05:52:36;100388.53;;;2.87;100.00
70815;BME280;58428;49.478;10.986;2023-02-14T05:55:02;100394.22;;;3.01;100.00
70815;BME280;58428;49.478;10.986;2023-02-14T05:57:28;100394.72;;;3.10;100.00
70815;BME280;58428;49.478;10.986;2023-02-14T05:59:53;100394.72;;;2.98;100.00
70815;BME280;58428;49.478;10.986;2023-02-14T06:02:20;100391.41;;;2.85;100.00
70815;BME280;58428;49.478;10.986;2023-02-14T06:04:45;100390.94;;;2.88;100.00
70815;BME280;58428;49.478;10.986;2023-02-14T06:07:11;100389.44;;;2.92;100.00
70815;BME280;58428;49.478;10.986;2023-02-14T06:09:36;100395.16;;;2.95;100.00
70815;BME280;58428;49.478;10.986;2023-02-14T06:12:02;100389.47;;;3.03;100.00
70815;BME280;58428;49.478;10.986;2023-02-14T06:14:27;100393.91;;;3.09;100.00
70815;BME280;58428;49.478;10.986;2023-02-14T06:16:53;100388.47;;;3.16;100.00
70815;BME280;58428;49.478;10.986;2023-02-14T06:19:18;100393.47;;;3.24;100.00
70815;BME280;58428;49.478;10.986;2023-02-14T06:21:44;100389.81;;;2.95;100.00
70815;BME280;58428;49.478;10.986;2023-02-14T06:24:09;100393.19;;;3.02;100.00
70815;BME280;58428;49.478;10.986;2023-02-14T06:26:35;100396.34;;;3.11;100.00
70815;BME280;58428;49.478;10.986;2023-02-14T06:29:02;100403.44;;;3.17;100.00
70815;BME280;58428;49.478;10.986;2023-02-14T06:31:30;100399.59;;;3.13;100.00
70815;BME280;58428;49.478;10.986;2023-02-14T06:33:55;100405.19;;;3.23;100.00
70815;BME280;58428;49.478;10.986;2023-02-14T06:36:21;100406.34;;;3.27;100.00
70815;BME280;58428;49.478;10.986;2023-02-14T06:38:51;100409.38;;;3.19;100.00
70815;BME280;58428;49.478;10.986;2023-02-14T06:41:16;100411.47;;;3.17;100.00
70815;BME280;58428;49.478;10.986;2023-02-14T06:43:43;100411.81;;;3.20;100.00
70815;BME280;58428;49.478;10.986;2023-02-14T06:46:13;100414.59;;;3.25;100.00
70815;BME280;58428;49.478;10.986;2023-02-14T06:48:41;100421.25;;;3.23;100.00
70815;BME280;58428;49.478;10.986;2023-02-14T06:51:06;100421.72;;;3.20;100.00
70815;BME280;58428;49.478;10.986;2023-02-14T06:53:33;100422.31;;;3.22;100.00
70815;BME280;58428;49.478;10.986;2023-02-14T06:55:59;100427.25;;;3.07;100.00
70815;BME280;58428;49.478;10.986;2023-02-14T06:58:26;100412.50;;;3.04;100.00
70815;BME280;58428;49.478;10.986;2023-02-14T07:00:56;100421.66;;;2.97;100.00
70815;BME280;58428;49.478;10.986;2023-02-14T07:03:22;100420.34;;;2.88;100.00
70815;BME280;58428;49.478;10.986;2023-02-14T07:05:47;100419.28;;;2.78;100.00
70815;BME280;58428;49.478;10.986;2023-02-14T07:08:14;100410.69;;;2.76;100.00
70815;BME280;58428;49.478;10.986;2023-02-14T07:10:41;100412.75;;;2.74;100.00
70815;BME280;58428;49.478;10.986;2023-02-14T07:13:08;100411.84;;;2.80;100.00
70815;BME280;58428;49.478;10.986;2023-02-14T07:15:34;100410.47;;;2.77;100.00
70815;BME280;58428;49.478;10.986;2023-02-14T07:18:01;100411.13;;;2.73;100.00
70815;BME280;58428;49.478;10.986;2023-02-14T07:20:29;100408.66;;;2.60;100.00
70815;BME280;58428;49.478;10.986;2023-02-14T07:22:54;100413.69;;;2.68;100.00
70815;BME280;58428;49.478;10.986;2023-02-14T07:25:20;100414.38;;;2.63;100.00
70815;BME280;58428;49.478;10.986;2023-02-14T07:27:47;100416.78;;;2.65;100.00
70815;BME280;58428;49.478;10.986;2023-02-14T07:30:13;100418.53;;;2.59;100.00
70815;BME280;58428;49.478;10.986;2023-02-14T07:32:40;100419.25;;;2.66;100.00
70815;BME280;58428;49.478;10.986;2023-02-14T07:35:06;100417.41;;;2.78;100.00
70815;BME280;58428;49.478;10.986;2023-02-14T07:37:32;100413.38;;;2.87;100.00
70815;BME280;58428;49.478;10.986;2023-02-14T07:40:00;100414.22;;;2.99;100.00
70815;BME280;58428;49.478;10.986;2023-02-14T07:42:30;100411.75;;;2.86;100.00
70815;BME280;58428;49.478;10.986;2023-02-14T07:44:55;100416.97;;;2.81;100.00
70815;BME280;58428;49.478;10.986;2023-02-14T07:47:21;100414.53;;;2.80;100.00
70815;BME280;58428;49.478;10.986;2023-02-14T07:49:49;100418.56;;;2.71;100.00
70815;BME280;58428;49.478;10.986;2023-02-14T07:52:15;100409.03;;;2.75;100.00
70815;BME280;58428;49.478;10.986;2023-02-14T07:54:40;100409.72;;;2.70;100.00
70815;BME280;58428;49.478;10.986;2023-02-14T07:57:07;100416.47;;;2.73;100.00
70815;BME280;58428;49.478;10.986;2023-02-14T07:59:33;100403.94;;;2.73;100.00
70815;BME280;58428;49.478;10.986;2023-02-14T08:01:58;100401.38;;;2.78;100.00
70815;BME280;58428;49.478;10.986;2023-02-14T08:04:27;100406.19;;;2.88;100.00
70815;BME280;58428;49.478;10.986;2023-02-14T08:06:52;100415.06;;;2.70;100.00
70815;BME280;58428;49.478;10.986;2023-02-14T08:09:19;100412.44;;;2.82;100.00
70815;BME280;58428;49.478;10.986;2023-02-14T08:11:52;100412.00;;;2.85;100.00
70815;BME280;58428;49.478;10.986;2023-02-14T08:14:37;100405.50;;;3.03;100.00
70815;BME280;58428;49.478;10.986;2023-02-14T08:17:03;100407.28;;;3.21;100.00
70815;BME280;58428;49.478;10.986;2023-02-14T08:19:31;100397.16;;;3.23;100.00
70815;BME280;58428;49.478;10.986;2023-02-14T08:21:57;100402.75;;;3.21;100.00
70815;BME280;58428;49.478;10.986;2023-02-14T08:24:24;100388.34;;;3.33;100.00
70815;BME280;58428;49.478;10.986;2023-02-14T08:26:50;100389.38;;;3.44;100.00
70815;BME280;58428;49.478;10.986;2023-02-14T08:29:18;100389.53;;;3.49;100.00
70815;BME280;58428;49.478;10.986;2023-02-14T08:31:43;100394.97;;;3.54;100.00
70815;BME280;58428;49.478;10.986;2023-02-14T08:34:09;100391.72;;;3.52;100.00
70815;BME280;58428;49.478;10.986;2023-02-14T08:36:36;100390.91;;;3.51;100.00
70815;BME280;58428;49.478;10.986;2023-02-14T08:39:03;100391.72;;;3.52;100.00
70815;BME280;58428;49.478;10.986;2023-02-14T08:41:29;100392.06;;;3.44;100.00
70815;BME280;58428;49.478;10.986;2023-02-14T08:43:56;100395.44;;;3.39;100.00
70815;BME280;58428;49.478;10.986;2023-02-14T08:46:22;100391.94;;;3.50;100.00
70815;BME280;58428;49.478;10.986;2023-02-14T08:48:48;100392.19;;;3.60;100.00
70815;BME280;58428;49.478;10.986;2023-02-14T08:51:15;100391.63;;;3.58;100.00
70815;BME280;58428;49.478;10.986;2023-02-14T08:53:41;100394.28;;;3.58;100.00
70815;BME280;58428;49.478;10.986;2023-02-14T08:56:12;100384.97;;;3.61;100.00
70815;BME280;58428;49.478;10.986;2023-02-14T08:58:39;100384.97;;;3.61;100.00
70815;BME280;58428;49.478;10.986;2023-02-14T09:01:15;100393.69;;;3.67;100.00
70815;BME280;58428;49.478;10.986;2023-02-14T09:03:41;100391.94;;;3.50;100.00
70815;BME280;58428;49.478;10.986;2023-02-14T09:06:13;100390.31;;;3.49;100.00
70815;BME280;58428;49.478;10.986;2023-02-14T09:08:42;100384.63;;;3.46;100.00
70815;BME280;58428;49.478;10.986;2023-02-14T09:11:16;100394.03;;;3.26;100.00
70815;BME280;58428;49.478;10.986;2023-02-14T09:13:46;100389.50;;;3.15;100.00
70815;BME280;58428;49.478;10.986;2023-02-14T09:16:15;100388.44;;;3.27;100.00
70815;BME280;58428;49.478;10.986;2023-02-14T09:18:44;100383.22;;;3.43;100.00
70815;BME280;58428;49.478;10.986;2023-02-14T09:21:15;100383.47;;;3.42;100.00
70815;BME280;58428;49.478;10.986;2023-02-14T09:23:41;100386.59;;;3.50;100.00
70815;BME280;58428;49.478;10.986;2023-02-14T09:26:10;100380.78;;;3.76;100.00
70815;BME280;58428;49.478;10.986;2023-02-14T09:28:36;100382.34;;;4.00;100.00
70815;BME280;58428;49.478;10.986;2023-02-14T09:31:17;100381.28;;;4.01;100.00
70815;BME280;58428;49.478;10.986;2023-02-14T09:33:43;100381.50;;;4.10;100.00
70815;BME280;58428;49.478;10.986;2023-02-14T09:36:29;100378.34;;;4.13;100.00
70815;BME280;58428;49.478;10.986;2023-02-14T09:39:14;100368.16;;;4.27;100.00
70815;BME280;58428;49.478;10.986;2023-02-14T09:44:47;100383.56;;;4.20;100.00
70815;BME280;58428;49.478;10.986;2023-02-14T09:50:23;100373.63;;;3.93;100.00
70815;BME280;58428;49.478;10.986;2023-02-14T09:52:54;100383.53;;;3.81;100.00
70815;BME280;58428;49.478;10.986;2023-02-14T09:55:21;100378.53;;;3.84;100.00
70815;BME280;58428;49.478;10.986;2023-02-14T09:58:04;100378.06;;;3.87;100.00
70815;BME280;58428;49.478;10.986;2023-02-14T10:00:36;100379.59;;;3.83;100.00
70815;BME280;58428;49.478;10.986;2023-02-14T10:09:13;100377.44;;;4.08;100.00
70815;BME280;58428;49.478;10.986;2023-02-14T10:11:45;100375.31;;;4.10;100.00
70815;BME280;58428;49.478;10.986;2023-02-14T10:14:15;100379.25;;;4.19;100.00
70815;BME280;58428;49.478;10.986;2023-02-14T10:16:49;100376.25;;;4.43;100.00
70815;BME280;58428;49.478;10.986;2023-02-14T10:20:03;100375.25;;;4.60;100.00
70815;BME280;58428;49.478;10.986;2023-02-14T10:22:14;100372.16;;;4.68;100.00
70815;BME280;58428;49.478;10.986;2023-02-14T10:24:57;100377.41;;;4.75;100.00
70815;BME280;58428;49.478;10.986;2023-02-14T10:27:39;100372.34;;;4.78;100.00
70815;BME280;58428;49.478;10.986;2023-02-14T10:30:20;100370.84;;;4.98;100.00
70815;BME280;58428;49.478;10.986;2023-02-14T10:33:00;100365.88;;;5.07;100.00
70815;BME280;58428;49.478;10.986;2023-02-14T10:35:37;100368.97;;;4.82;100.00
70815;BME280;58428;49.478;10.986;2023-02-14T10:41:16;100359.88;;;5.00;100.00
70815;BME280;58428;49.478;10.986;2023-02-14T10:49:03;100359.13;;;5.04;100.00
70815;BME280;58428;49.478;10.986;2023-02-14T10:54:33;100347.44;;;5.10;100.00
70815;BME280;58428;49.478;10.986;2023-02-14T10:57:18;100347.50;;;4.99;100.00
70815;BME280;58428;49.478;10.986;2023-02-14T10:59:53;100341.25;;;4.93;100.00
70815;BME280;58428;49.478;10.986;2023-02-14T11:02:30;100352.63;;;5.00;100.00
70815;BME280;58428;49.478;10.986;2023-02-14T11:04:58;100342.16;;;4.99;100.00
70815;BME280;58428;49.478;10.986;2023-02-14T11:07:24;100341.88;;;5.16;100.00
70815;BME280;58428;49.478;10.986;2023-02-14T11:09:49;100336.03;;;5.36;100.00
70815;BME280;58428;49.478;10.986;2023-02-14T11:12:47;100341.28;;;5.47;100.00
70815;BME280;58428;49.478;10.986;2023-02-14T11:15:20;100334.88;;;5.48;100.00
70815;BME280;58428;49.478;10.986;2023-02-14T11:17:47;100331.88;;;5.45;100.00
70815;BME280;58428;49.478;10.986;2023-02-14T11:20:23;100328.63;;;5.43;100.00
70815;BME280;58428;49.478;10.986;2023-02-14T11:22:50;100327.63;;;5.48;100.00
70815;BME280;58428;49.478;10.986;2023-02-14T11:25:24;100323.50;;;5.41;100.00
70815;BME280;58428;49.478;10.986;2023-02-14T11:28:07;100316.94;;;5.53;100.00
70815;BME280;58428;49.478;10.986;2023-02-14T11:30:41;100320.28;;;5.60;100.00
70815;BME280;58428;49.478;10.986;2023-02-14T11:35:53;100313.50;;;5.74;100.00
70815;BME280;58428;49.478;10.986;2023-02-14T11:38:33;100314.63;;;5.78;100.00
70815;BME280;58428;49.478;10.986;2023-02-14T11:41:01;100311.28;;;5.87;100.00
70815;BME280;58428;49.478;10.986;2023-02-14T11:43:40;100306.97;;;5.87;100.00
70815;BME280;58428;49.478;10.986;2023-02-14T11:46:17;100300.16;;;5.63;100.00
70815;BME280;58428;49.478;10.986;2023-02-14T11:49:05;100304.06;;;5.72;100.00
70815;BME280;58428;49.478;10.986;2023-02-14T11:51:48;100293.59;;;5.91;100.00
70815;BME280;58428;49.478;10.986;2023-02-14T11:54:34;100302.78;;;5.74;100.00
70815;BME280;58428;49.478;10.986;2023-02-14T11:57:02;100295.78;;;5.57;100.00
70815;BME280;58428;49.478;10.986;2023-02-14T11:59:50;100293.34;;;5.55;100.00
70815;BME280;58428;49.478;10.986;2023-02-14T12:02:45;100294.00;;;5.62;100.00
70815;BME280;58428;49.478;10.986;2023-02-14T12:05:30;100286.59;;;5.90;100.00
70815;BME280;58428;49.478;10.986;2023-02-14T12:08:01;100278.53;;;6.12;100.00
70815;BME280;58428;49.478;10.986;2023-02-14T12:10:30;100272.34;;;6.37;100.00
70815;BME280;58428;49.478;10.986;2023-02-14T12:13:21;100271.81;;;6.40;100.00
70815;BME280;58428;49.478;10.986;2023-02-14T12:15:52;100266.03;;;6.27;100.00
70815;BME280;58428;49.478;10.986;2023-02-14T12:24:09;100257.00;;;6.33;100.00
70815;BME280;58428;49.478;10.986;2023-02-14T12:29:22;100248.16;;;6.37;100.00
70815;BME280;58428;49.478;10.986;2023-02-14T12:31:51;100240.03;;;6.63;100.00
70815;BME280;58428;49.478;10.986;2023-02-14T12:34:20;100225.28;;;6.66;100.00
70815;BME280;58428;49.478;10.986;2023-02-14T12:37:19;100222.41;;;6.46;100.00
70815;BME280;58428;49.478;10.986;2023-02-14T12:43:02;100220.78;;;7.12;100.00
70815;BME280;58428;49.478;10.986;2023-02-14T12:53:50;100218.81;;;7.03;100.00
70815;BME280;58428;49.478;10.986;2023-02-14T12:56:56;100223.38;;;7.02;100.00
70815;BME280;58428;49.478;10.986;2023-02-14T12:59:59;100210.19;;;7.01;100.00
70815;BME280;58428;49.478;10.986;2023-02-14T13:05:15;100201.88;;;7.07;100.00
70815;BME280;58428;49.478;10.986;2023-02-14T13:10:39;100198.16;;;7.08;100.00
70815;BME280;58428;49.478;10.986;2023-02-14T13:16:21;100202.00;;;7.22;100.00
70815;BME280;58428;49.478;10.986;2023-02-14T13:19:00;100197.41;;;7.28;100.00
70815;BME280;58428;49.478;10.986;2023-02-14T13:21:31;100194.13;;;7.16;100.00
70815;BME280;58428;49.478;10.986;2023-02-14T13:26:41;100184.28;;;6.85;100.00
70815;BME280;58428;49.478;10.986;2023-02-14T13:29:18;100195.34;;;6.94;100.00
70815;BME280;58428;49.478;10.986;2023-02-14T13:31:45;100180.78;;;6.90;100.00
70815;BME280;58428;49.478;10.986;2023-02-14T13:36:56;100178.97;;;7.00;100.00
70815;BME280;58428;49.478;10.986;2023-02-14T13:39:36;100179.00;;;7.05;100.00
70815;BME280;58428;49.478;10.986;2023-02-14T13:42:05;100173.09;;;7.08;100.00
70815;BME280;58428;49.478;10.986;2023-02-14T13:44:49;100164.22;;;7.07;100.00
70815;BME280;58428;49.478;10.986;2023-02-14T13:47:25;100169.59;;;7.07;100.00
70815;BME280;58428;49.478;10.986;2023-02-14T13:50:16;100161.56;;;7.12;100.00
70815;BME280;58428;49.478;10.986;2023-02-14T13:52:48;100164.25;;;7.17;100.00
70815;BME280;58428;49.478;10.986;2023-02-14T13:55:34;100168.84;;;7.22;100.00
70815;BME280;58428;49.478;10.986;2023-02-14T13:58:05;100159.97;;;7.16;100.00
70815;BME280;58428;49.478;10.986;2023-02-14T14:03:12;100159.09;;;7.06;100.00
70815;BME280;58428;49.478;10.986;2023-02-14T14:21:32;100159.88;;;7.06;100.00
70815;BME280;58428;49.478;10.986;2023-02-14T14:29:24;100156.81;;;7.34;100.00
70815;BME280;58428;49.478;10.986;2023-02-14T14:31:51;100158.34;;;7.15;100.00
70815;BME280;58428;49.478;10.986;2023-02-14T14:34:26;100153.09;;;6.89;100.00
70815;BME280;58428;49.478;10.986;2023-02-14T14:37:02;100153.91;;;6.90;100.00
70815;BME280;58428;49.478;10.986;2023-02-14T14:39:29;100154.47;;;6.96;100.00
70815;BME280;58428;49.478;10.986;2023-02-14T14:42:04;100150.16;;;6.96;100.00
70815;BME280;58428;49.478;10.986;2023-02-14T14:44:33;100151.66;;;6.77;100.00
70815;BME280;58428;49.478;10.986;2023-02-14T14:47:01;100144.38;;;6.36;100.00
70815;BME280;58428;49.478;10.986;2023-02-14T14:49:27;100155.38;;;6.04;100.00
70815;BME280;58428;49.478;10.986;2023-02-14T14:51:55;100151.38;;;6.06;100.00
70815;BME280;58428;49.478;10.986;2023-02-14T14:54:22;100148.22;;;6.14;100.00
70815;BME280;58428;49.478;10.986;2023-02-14T14:56:59;100148.06;;;5.99;100.00
70815;BME280;58428;49.478;10.986;2023-02-14T15:01:54;100139.56;;;6.07;100.00
70815;BME280;58428;49.478;10.986;2023-02-14T15:04:50;100138.66;;;6.28;100.00
70815;BME280;58428;49.478;10.986;2023-02-14T15:09:49;100137.34;;;6.30;100.00
70815;BME280;58428;49.478;10.986;2023-02-14T15:12:20;100134.78;;;6.45;100.00
70815;BME280;58428;49.478;10.986;2023-02-14T15:15:05;100131.75;;;6.37;100.00